Time;durP1;ratioP1;P1;durP2;ratioP2;P2;SDS_P1;SDS_P2;PMS_P1;PMS_P2;Temp;Humidity;BMP_temperature;BMP_pressure;BME280_temperature;BME280_humidity;BME280_pressure;Samples;Min_cycle;Max_cycle;Signal;HPM_P1;HPM_P2
2023/04/02 00:01:42;;;;;;;8.85;6.95;;;;;;;;;;5075229;28;20107;-66
2023/04/02 00:04:13;;;;;;;8.15;6.85;;;;;;;;;;5075025;28;20027;-67
2023/04/02 00:06:44;;;;;;;8.18;6.78;;;;;;;;;;5086816;28;20060;-67
2023/04/02 00:09:12;;;;;;;10.50;7.35;;;;;;;;;;5083697;28;20102;-66
2023/04/02 00:11:39;;;;;;;8.40;6.72;;;;;;;;;;5087875;28;20536;-67
2023/04/02 00:14:12;;;;;;;9.02;7.45;;;;;;;;;;5074632;28;20012;-67
2023/04/02 00:16:37;;;;;;;7.97;7.15;;;;;;;;;;5074963;28;20158;-66
2023/04/02 00:19:05;;;;;;;8.45;6.75;;;;;;;;;;5074571;28;20626;-67
2023/04/02 00:21:32;;;;;;;9.07;7.05;;;;;;;;;;5084004;28;20065;-67
2023/04/02 00:24:01;;;;;;;7.35;6.50;;;;;;;;;;5080762;28;20036;-67
2023/04/02 00:26:26;;;;;;;9.40;7.55;;;;;;;;;;5074921;28;20051;-67
2023/04/02 00:28:52;;;;;;;10.03;8.07;;;;;;;;;;5081052;28;20471;-68
2023/04/02 00:31:18;;;;;;;10.68;8.02;;;;;;;;;;5076669;28;20780;-67
2023/04/02 00:33:44;;;;;;;9.82;7.97;;;;;;;;;;5055537;28;20021;-67
2023/04/02 00:36:09;;;;;;;10.32;8.50;;;;;;;;;;5046335;28;20059;-67
2023/04/02 00:38:35;;;;;;;9.65;8.57;;;;;;;;;;5035144;28;20280;-67
2023/04/02 00:41:02;;;;;;;8.50;7.25;;;;;;;;;;5064959;28;20363;-67
2023/04/02 00:43:30;;;;;;;8.95;7.90;;;;;;;;;;5074538;28;20106;-68
2023/04/02 00:45:57;;;;;;;19.15;8.13;;;;;;;;;;5074563;28;20544;-67
2023/04/02 00:48:31;;;;;;;10.10;7.95;;;;;;;;;;5085196;28;20029;-67
2023/04/02 00:51:06;;;;;;;9.77;8.00;;;;;;;;;;5075036;28;20033;-66
2023/04/02 00:53:32;;;;;;;10.82;8.60;;;;;;;;;;5074574;28;20074;-66
2023/04/02 00:55:58;;;;;;;11.02;8.23;;;;;;;;;;5074069;28;20066;-66
2023/04/02 00:58:28;;;;;;;13.35;8.98;;;;;;;;;;5074840;28;20490;-66
2023/04/02 01:00:54;;;;;;;10.45;8.68;;;;;;;;;;5074097;28;20032;-67
2023/04/02 01:03:21;;;;;;;10.73;8.65;;;;;;;;;;5074332;28;20027;-67
2023/04/02 01:06:15;;;;;;;13.15;10.25;;;;;;;;;;5074450;28;20039;-66
2023/04/02 01:09:04;;;;;;;10.30;9.20;;;;;;;;;;5052022;28;20059;-67
2023/04/02 01:11:35;;;;;;;12.55;8.45;;;;;;;;;;5062458;28;20162;-66
2023/04/02 01:14:01;;;;;;;10.45;8.43;;;;;;;;;;5074014;28;20032;-66
2023/04/02 01:16:29;;;;;;;11.02;8.15;;;;;;;;;;5073866;28;20494;-66
2023/04/02 01:19:13;;;;;;;11.10;9.73;;;;;;;;;;5073570;28;20060;-66
2023/04/02 01:21:57;;;;;;;10.23;8.50;;;;;;;;;;5078566;28;20028;-66
2023/04/02 01:24:25;;;;;;;9.80;8.70;;;;;;;;;;5080557;28;20040;-66
2023/04/02 01:26:58;;;;;;;12.93;9.27;;;;;;;;;;5073740;28;20029;-65
2023/04/02 01:29:34;;;;;;;11.35;8.65;;;;;;;;;;5087501;28;20020;-66
2023/04/02 01:32:10;;;;;;;11.60;9.25;;;;;;;;;;5073644;28;20486;-66
2023/04/02 01:34:36;;;;;;;12.35;8.48;;;;;;;;;;5073719;28;20013;-66
2023/04/02 01:37:11;;;;;;;11.07;8.70;;;;;;;;;;5073737;28;20467;-66
2023/04/02 01:39:40;;;;;;;8.85;7.10;;;;;;;;;;5073875;28;20158;-66
2023/04/02 01:42:24;;;;;;;10.30;8.07;;;;;;;;;;5073520;28;20028;-66
2023/04/02 01:44:51;;;;;;;11.82;6.93;;;;;;;;;;5074068;28;20113;-66
2023/04/02 01:47:18;;;;;;;7.43;6.40;;;;;;;;;;5072942;28;20020;-66
2023/04/02 01:49:44;;;;;;;10.48;7.05;;;;;;;;;;5077490;28;20004;-66
2023/04/02 01:52:16;;;;;;;8.30;7.03;;;;;;;;;;5077662;28;20016;-66
2023/04/02 01:54:42;;;;;;;8.25;6.78;;;;;;;;;;5073153;28;20097;-67
2023/04/02 01:57:07;;;;;;;7.97;6.53;;;;;;;;;;5073296;28;20064;-66
2023/04/02 01:59:32;;;;;;;8.50;7.10;;;;;;;;;;5073078;28;20029;-65
2023/04/02 02:02:01;;;;;;;10.55;7.95;;;;;;;;;;5072952;28;20025;-65
2023/04/02 02:04:27;;;;;;;10.05;7.13;;;;;;;;;;5069098;28;20020;-65
2023/04/02 02:06:52;;;;;;;7.65;6.80;;;;;;;;;;5034091;28;20020;-66
2023/04/02 02:09:22;;;;;;;9.13;7.53;;;;;;;;;;5044119;28;20098;-65
2023/04/02 02:11:48;;;;;;;10.45;7.82;;;;;;;;;;5050612;28;20139;-67
2023/04/02 02:14:15;;;;;;;11.40;7.68;;;;;;;;;;5049545;28;20035;-66
2023/04/02 02:16:40;;;;;;;8.23;6.97;;;;;;;;;;5032750;28;20123;-66
2023/04/02 02:19:10;;;;;;;9.80;7.53;;;;;;;;;;5032470;28;20031;-66
2023/04/02 02:21:35;;;;;;;9.90;6.80;;;;;;;;;;5059065;28;20042;-65
2023/04/02 02:24:00;;;;;;;9.93;7.38;;;;;;;;;;5062192;28;20478;-66
2023/04/02 02:26:27;;;;;;;10.90;8.50;;;;;;;;;;5079009;28;20536;-65
2023/04/02 02:28:55;;;;;;;10.68;8.85;;;;;;;;;;5072835;28;20543;-65
2023/04/02 02:31:26;;;;;;;9.68;7.80;;;;;;;;;;5072874;28;20108;-66
2023/04/02 02:33:54;;;;;;;8.50;7.13;;;;;;;;;;5072534;28;20025;-66
2023/04/02 02:36:21;;;;;;;9.40;7.90;;;;;;;;;;5072156;28;20035;-65
2023/04/02 02:38:52;;;;;;;9.15;7.22;;;;;;;;;;5072604;28;20024;-65
2023/04/02 02:41:30;;;;;;;11.27;7.97;;;;;;;;;;5053181;28;20123;-65
2023/04/02 02:44:05;;;;;;;8.73;7.80;;;;;;;;;;5032692;28;20123;-66
2023/04/02 02:46:31;;;;;;;11.00;8.25;;;;;;;;;;5036303;28;20448;-66
2023/04/02 02:48:57;;;;;;;8.68;6.70;;;;;;;;;;5032666;28;20032;-65
2023/04/02 02:51:26;;;;;;;12.65;8.23;;;;;;;;;;5031143;28;20028;-66
2023/04/02 02:53:54;;;;;;;8.32;7.20;;;;;;;;;;5034988;28;20020;-67
2023/04/02 02:56:20;;;;;;;8.50;6.70;;;;;;;;;;5072775;28;20020;-66
2023/04/02 02:58:46;;;;;;;9.93;6.90;;;;;;;;;;5083743;28;20048;-66
2023/04/02 03:01:11;;;;;;;9.05;6.38;;;;;;;;;;5087920;28;20563;-66
2023/04/02 03:03:37;;;;;;;9.05;7.00;;;;;;;;;;5082207;28;20028;-67
2023/04/02 03:06:07;;;;;;;8.20;6.20;;;;;;;;;;5088986;28;20029;-67
2023/04/02 03:08:44;;;;;;;7.82;6.05;;;;;;;;;;5077066;28;20103;-65
2023/04/02 03:11:25;;;;;;;8.77;5.97;;;;;;;;;;5074224;28;20027;-65
2023/04/02 03:13:54;;;;;;;7.68;5.65;;;;;;;;;;5035714;28;20919;-65
2023/04/02 03:16:26;;;;;;;8.38;6.05;;;;;;;;;;5032357;28;20032;-66
2023/04/02 03:19:01;;;;;;;7.38;5.75;;;;;;;;;;5035045;28;20020;-65
2023/04/02 03:21:29;;;;;;;6.47;5.35;;;;;;;;;;5040096;28;20584;-65
2023/04/02 03:24:02;;;;;;;9.23;6.32;;;;;;;;;;5039501;28;20051;-66
2023/04/02 03:26:28;;;;;;;7.37;5.93;;;;;;;;;;5044164;28;20082;-65
2023/04/02 03:28:58;;;;;;;6.93;5.93;;;;;;;;;;5034691;28;20925;-65
2023/04/02 03:31:30;;;;;;;8.52;6.85;;;;;;;;;;5037862;28;20904;-65
2023/04/02 03:33:58;;;;;;;9.90;7.57;;;;;;;;;;5038213;28;20081;-65
2023/04/02 03:36:29;;;;;;;8.43;7.00;;;;;;;;;;5046014;28;20023;-66
2023/04/02 03:38:54;;;;;;;9.90;7.03;;;;;;;;;;5034140;28;20028;-66
2023/04/02 03:41:37;;;;;;;8.57;7.03;;;;;;;;;;5053457;28;20375;-65
2023/04/02 03:44:06;;;;;;;10.15;7.10;;;;;;;;;;5035941;28;20316;-65
2023/04/02 03:46:31;;;;;;;8.55;7.38;;;;;;;;;;5032893;28;20032;-66
2023/04/02 03:48:59;;;;;;;11.45;7.85;;;;;;;;;;5030992;28;20143;-66
2023/04/02 03:51:32;;;;;;;9.70;7.75;;;;;;;;;;5058920;28;20535;-65
2023/04/02 03:53:57;;;;;;;10.40;7.47;;;;;;;;;;5073223;28;20111;-65
2023/04/02 03:56:22;;;;;;;12.82;7.53;;;;;;;;;;5086654;28;20534;-67
2023/04/02 03:58:53;;;;;;;10.65;7.78;;;;;;;;;;5071649;28;20029;-67
2023/04/02 04:01:23;;;;;;;11.35;8.52;;;;;;;;;;5072098;28;20025;-65
2023/04/02 04:03:49;;;;;;;10.85;7.85;;;;;;;;;;5070708;28;20024;-65
2023/04/02 04:06:17;;;;;;;9.20;7.53;;;;;;;;;;5083337;28;20109;-65
2023/04/02 04:08:45;;;;;;;10.75;7.53;;;;;;;;;;5085323;28;20017;-65
2023/04/02 04:11:15;;;;;;;12.18;7.78;;;;;;;;;;5084583;28;20048;-66
2023/04/02 04:13:59;;;;;;;12.77;9.27;;;;;;;;;;5071600;28;20082;-67
2023/04/02 04:16:28;;;;;;;9.52;7.80;;;;;;;;;;5071656;28;20494;-65
2023/04/02 04:19:05;;;;;;;10.57;7.72;;;;;;;;;;5070909;28;20032;-65
2023/04/02 04:21:36;;;;;;;14.27;7.90;;;;;;;;;;5071306;28;20028;-65
2023/04/02 04:24:03;;;;;;;15.93;8.80;;;;;;;;;;5071249;28;20082;-66
2023/04/02 04:26:40;;;;;;;13.05;9.45;;;;;;;;;;5071159;28;20029;-67
2023/04/02 04:29:23;;;;;;;11.07;8.45;;;;;;;;;;5070815;28;20029;-67
2023/04/02 04:31:53;;;;;;;12.93;9.20;;;;;;;;;;5071172;28;20070;-66
2023/04/02 04:34:23;;;;;;;15.68;9.00;;;;;;;;;;5071170;28;20036;-65
2023/04/02 04:36:54;;;;;;;13.13;9.48;;;;;;;;;;5084352;28;20035;-66
2023/04/02 04:39:28;;;;;;;13.20;9.95;;;;;;;;;;5070763;28;20032;-66
2023/04/02 04:41:55;;;;;;;15.65;10.23;;;;;;;;;;5071497;28;20043;-68
2023/04/02 04:44:38;;;;;;;11.45;9.32;;;;;;;;;;5074741;28;20028;-68
2023/04/02 04:47:04;;;;;;;11.27;8.93;;;;;;;;;;5074993;28;20029;-67
2023/04/02 04:49:42;;;;;;;15.25;9.75;;;;;;;;;;5071673;28;20024;-67
2023/04/02 04:52:16;;;;;;;13.43;9.77;;;;;;;;;;5074419;28;20035;-67
2023/04/02 04:54:42;;;;;;;11.88;8.25;;;;;;;;;;5034025;28;20021;-67
2023/04/02 04:57:19;;;;;;;13.07;9.70;;;;;;;;;;5036542;28;20735;-67
2023/04/02 04:59:48;;;;;;;12.20;9.48;;;;;;;;;;5045695;28;20070;-67
2023/04/02 05:02:16;;;;;;;12.82;9.48;;;;;;;;;;5043064;28;20025;-67
2023/04/02 05:04:43;;;;;;;12.50;9.15;;;;;;;;;;5035527;28;20043;-66
2023/04/02 05:07:17;;;;;;;13.65;8.88;;;;;;;;;;5074457;28;20024;-66
2023/04/02 05:09:44;;;;;;;13.20;10.10;;;;;;;;;;5079261;28;20032;-66
2023/04/02 05:12:45;;;;;;;16.55;10.55;;;;;;;;;;5082384;28;20024;-65
2023/04/02 05:15:13;;;;;;;13.07;8.98;;;;;;;;;;4974296;28;20823;-66
2023/04/02 05:17:45;;;;;;;16.92;9.88;;;;;;;;;;5029865;28;20147;-66
2023/04/02 05:20:15;;;;;;;11.82;9.93;;;;;;;;;;5043406;28;20183;-67
2023/04/02 05:22:53;;;;;;;16.35;10.73;;;;;;;;;;5068634;28;20112;-67
2023/04/02 05:25:22;;;;;;;12.70;9.88;;;;;;;;;;5080433;28;20032;-66
2023/04/02 05:28:10;;;;;;;14.20;10.05;;;;;;;;;;5073887;28;20025;-67
2023/04/02 05:30:41;;;;;;;13.10;9.90;;;;;;;;;;5053836;28;20042;-66
2023/04/02 05:33:23;;;;;;;12.10;9.68;;;;;;;;;;5034578;28;20021;-66
2023/04/02 05:35:51;;;;;;;16.00;10.18;;;;;;;;;;5036054;28;20229;-66
2023/04/02 05:38:21;;;;;;;16.58;11.15;;;;;;;;;;5035806;28;20035;-66
2023/04/02 05:40:47;;;;;;;15.02;10.13;;;;;;;;;;5065105;28;20459;-66
2023/04/02 05:43:15;;;;;;;14.57;10.65;;;;;;;;;;5078554;28;20031;-66
2023/04/02 05:45:42;;;;;;;11.93;9.02;;;;;;;;;;5075479;28;20475;-66
2023/04/02 05:48:16;;;;;;;16.38;10.73;;;;;;;;;;5073276;28;20020;-66
2023/04/02 05:50:43;;;;;;;16.17;11.43;;;;;;;;;;5086257;28;20036;-66
2023/04/02 05:53:13;;;;;;;17.63;12.02;;;;;;;;;;5072776;28;20498;-66
2023/04/02 05:55:38;;;;;;;16.73;11.55;;;;;;;;;;5077411;28;20016;-66
2023/04/02 05:58:06;;;;;;;14.18;12.00;;;;;;;;;;5081423;28;20082;-66
2023/04/02 06:00:44;;;;;;;19.95;12.82;;;;;;;;;;5073037;28;20514;-66
2023/04/02 06:03:23;;;;;;;19.35;13.25;;;;;;;;;;5073488;28;20142;-66
2023/04/02 06:05:50;;;;;;;21.95;12.25;;;;;;;;;;5081666;28;20488;-66
2023/04/02 06:08:26;;;;;;;16.52;12.15;;;;;;;;;;5079721;28;20107;-66
2023/04/02 06:10:53;;;;;;;19.63;13.05;;;;;;;;;;5091726;28;20073;-66
2023/04/02 06:13:19;;;;;;;22.70;13.23;;;;;;;;;;5073319;28;20021;-66
2023/04/02 06:15:44;;;;;;;17.73;12.38;;;;;;;;;;5072789;28;20521;-66
2023/04/02 06:18:13;;;;;;;15.27;11.05;;;;;;;;;;5073443;28;20435;-66
2023/04/02 06:20:38;;;;;;;15.00;12.45;;;;;;;;;;5073903;28;20028;-66
2023/04/02 06:23:11;;;;;;;15.82;10.93;;;;;;;;;;5085812;28;20382;-66
2023/04/02 06:25:38;;;;;;;14.75;11.10;;;;;;;;;;5076148;28;20576;-66
2023/04/02 06:28:05;;;;;;;16.05;10.63;;;;;;;;;;5073077;28;20024;-65
2023/04/02 06:30:32;;;;;;;14.07;11.40;;;;;;;;;;5072932;28;20020;-65
2023/04/02 06:32:57;;;;;;;20.70;11.23;;;;;;;;;;5072857;28;20021;-65
2023/04/02 06:35:22;;;;;;;18.42;11.07;;;;;;;;;;5074302;28;20158;-66
2023/04/02 06:37:50;;;;;;;15.75;10.70;;;;;;;;;;5072579;28;20024;-67
2023/04/02 06:40:32;;;;;;;13.85;10.38;;;;;;;;;;5076478;28;20028;-67
2023/04/02 06:42:59;;;;;;;19.50;10.52;;;;;;;;;;5078498;28;20020;-66
2023/04/02 06:45:27;;;;;;;15.02;10.88;;;;;;;;;;5069492;28;20024;-66
2023/04/02 06:47:54;;;;;;;19.80;10.80;;;;;;;;;;5070221;28;20025;-66
2023/04/02 06:50:30;;;;;;;12.70;10.25;;;;;;;;;;5072901;28;20490;-67
2023/04/02 06:52:57;;;;;;;13.80;9.68;;;;;;;;;;5076203;28;20036;-66
2023/04/02 06:55:31;;;;;;;14.48;9.90;;;;;;;;;;5069732;28;20027;-66
2023/04/02 06:57:57;;;;;;;12.98;9.45;;;;;;;;;;5067067;28;20472;-66
2023/04/02 07:00:25;;;;;;;18.92;9.70;;;;;;;;;;5039801;28;20035;-66
2023/04/02 07:02:52;;;;;;;14.15;10.02;;;;;;;;;;5046580;28;20028;-66
2023/04/02 07:05:17;;;;;;;17.25;9.73;;;;;;;;;;5057835;28;20027;-66
2023/04/02 07:07:42;;;;;;;13.63;9.25;;;;;;;;;;5047922;28;20897;-66
2023/04/02 07:10:08;;;;;;;14.27;9.75;;;;;;;;;;5079225;28;20090;-66
2023/04/02 07:12:34;;;;;;;13.50;9.68;;;;;;;;;;5074032;28;20021;-65
2023/04/02 07:14:59;;;;;;;14.27;9.43;;;;;;;;;;5081928;28;20027;-66
2023/04/02 07:17:25;;;;;;;17.50;10.38;;;;;;;;;;5073449;28;20431;-66
2023/04/02 07:19:50;;;;;;;16.70;10.02;;;;;;;;;;5074720;28;20444;-66
2023/04/02 07:22:16;;;;;;;14.18;10.13;;;;;;;;;;5072001;28;20428;-65
2023/04/02 07:24:41;;;;;;;13.98;10.88;;;;;;;;;;5072820;28;20024;-66
2023/04/02 07:27:08;;;;;;;17.58;10.25;;;;;;;;;;5073756;28;20104;-66
2023/04/02 07:29:33;;;;;;;16.30;10.00;;;;;;;;;;5078303;28;20104;-66
2023/04/02 07:31:59;;;;;;;15.32;10.20;;;;;;;;;;5077001;28;20100;-66
2023/04/02 07:34:24;;;;;;;12.02;9.95;;;;;;;;;;5071927;28;20021;-66
2023/04/02 07:36:50;;;;;;;15.65;11.38;;;;;;;;;;5075200;28;20024;-66
2023/04/02 07:39:15;;;;;;;16.70;11.18;;;;;;;;;;5072261;28;20040;-66
2023/04/02 07:41:51;;;;;;;19.98;11.00;;;;;;;;;;5056007;28;20017;-66
2023/04/02 07:44:16;;;;;;;12.63;10.18;;;;;;;;;;5078460;28;20024;-66
2023/04/02 07:46:41;;;;;;;14.45;10.18;;;;;;;;;;5071459;28;20037;-66
2023/04/02 07:49:06;;;;;;;14.27;10.45;;;;;;;;;;5071526;28;20060;-67
2023/04/02 07:51:32;;;;;;;15.18;9.20;;;;;;;;;;5079245;28;20478;-66
2023/04/02 07:54:00;;;;;;;12.10;9.63;;;;;;;;;;5071873;28;20028;-66
2023/04/02 07:56:26;;;;;;;12.70;8.60;;;;;;;;;;5080387;28;20036;-66
2023/04/02 07:58:51;;;;;;;11.27;8.32;;;;;;;;;;5071905;28;20065;-66
2023/04/02 08:01:22;;;;;;;11.15;8.40;;;;;;;;;;5076272;28;20025;-66
2023/04/02 08:03:48;;;;;;;11.85;8.57;;;;;;;;;;5071624;28;20383;-66
2023/04/02 08:06:13;;;;;;;15.35;8.07;;;;;;;;;;5083376;28;20028;-65
2023/04/02 08:08:38;;;;;;;16.63;7.80;;;;;;;;;;5073080;28;20052;-66
2023/04/02 08:11:04;;;;;;;9.18;7.20;;;;;;;;;;5084432;28;20082;-66
2023/04/02 08:13:30;;;;;;;10.95;7.88;;;;;;;;;;5071463;28;20020;-66
2023/04/02 08:15:57;;;;;;;10.75;8.18;;;;;;;;;;5076472;28;20035;-66
2023/04/02 08:18:22;;;;;;;12.35;8.63;;;;;;;;;;5073605;28;20467;-66
2023/04/02 08:20:47;;;;;;;10.20;7.68;;;;;;;;;;5079699;28;20073;-66
2023/04/02 08:23:16;;;;;;;12.10;8.35;;;;;;;;;;5074899;28;20028;-66
2023/04/02 08:25:42;;;;;;;16.13;7.63;;;;;;;;;;5078166;28;20036;-66
2023/04/02 08:28:07;;;;;;;9.18;7.47;;;;;;;;;;5074799;28;20043;-66
2023/04/02 08:30:33;;;;;;;9.52;7.70;;;;;;;;;;5087649;28;20043;-66
2023/04/02 08:32:58;;;;;;;9.18;7.15;;;;;;;;;;5074926;28;20154;-66
2023/04/02 08:35:23;;;;;;;12.90;7.05;;;;;;;;;;5074765;28;20024;-66
2023/04/02 08:37:48;;;;;;;12.10;7.82;;;;;;;;;;5074107;28;20097;-65
2023/04/02 08:40:34;;;;;;;14.00;7.57;;;;;;;;;;5074990;28;20107;-66
2023/04/02 08:43:12;;;;;;;13.50;7.35;;;;;;;;;;5074476;28;20467;-66
2023/04/02 08:45:50;;;;;;;11.75;7.95;;;;;;;;;;5078713;28;20020;-77
2023/04/02 08:48:16;;;;;;;10.52;7.70;;;;;;;;;;5079926;28;20585;-69
2023/04/02 08:50:42;;;;;;;12.77;7.10;;;;;;;;;;5080022;28;20020;-67
2023/04/02 08:53:36;;;;;;;16.30;8.00;;;;;;;;;;5080255;28;20591;-68
2023/04/02 08:56:16;;;;;;;10.40;7.75;;;;;;;;;;5068439;28;20028;-69
2023/04/02 08:58:50;;;;;;;11.25;7.00;;;;;;;;;;5081413;28;20035;-67
2023/04/02 09:01:20;;;;;;;11.43;7.73;;;;;;;;;;5067597;28;20024;-67
2023/04/02 09:03:46;;;;;;;14.23;8.23;;;;;;;;;;5072858;28;20033;-66
2023/04/02 09:06:14;;;;;;;12.35;7.55;;;;;;;;;;5078069;28;20048;-64
2023/04/02 09:08:42;;;;;;;13.77;7.38;;;;;;;;;;5081248;28;20387;-64
2023/04/02 09:11:17;;;;;;;11.38;7.63;;;;;;;;;;5080021;28;20020;-65
2023/04/02 09:13:45;;;;;;;9.70;6.60;;;;;;;;;;5079083;28;20017;-64
2023/04/02 09:16:11;;;;;;;12.68;7.03;;;;;;;;;;5075422;28;20020;-63
2023/04/02 09:18:37;;;;;;;9.93;6.55;;;;;;;;;;5075966;28;20081;-65
2023/04/02 09:21:27;;;;;;;10.70;5.97;;;;;;;;;;5074583;28;20040;-65
2023/04/02 09:23:52;;;;;;;9.90;6.00;;;;;;;;;;5064434;28;20050;-67
2023/04/02 09:26:22;;;;;;;13.07;7.55;;;;;;;;;;5040833;28;20032;-66
2023/04/02 09:28:49;;;;;;;12.00;6.03;;;;;;;;;;5041537;28;20027;-68
2023/04/02 09:31:20;;;;;;;8.85;5.63;;;;;;;;;;5042719;28;20025;-68
2023/04/02 09:33:47;;;;;;;10.35;6.80;;;;;;;;;;5041811;28;20905;-74
2023/04/02 09:36:32;;;;;;;8.50;5.47;;;;;;;;;;5025326;28;20028;-67
2023/04/02 09:38:58;;;;;;;12.43;6.55;;;;;;;;;;5044370;28;20024;-68
2023/04/02 09:41:26;;;;;;;8.98;5.55;;;;;;;;;;5040356;28;20031;-68
2023/04/02 09:44:10;;;;;;;8.82;5.60;;;;;;;;;;5041980;28;20016;-68
2023/04/02 09:46:35;;;;;;;10.27;6.18;;;;;;;;;;5042622;28;20425;-67
2023/04/02 09:49:01;;;;;;;12.45;6.68;;;;;;;;;;5072245;28;20033;-70
2023/04/02 09:51:27;;;;;;;14.75;6.63;;;;;;;;;;5076533;28;20028;-69
2023/04/02 09:54:01;;;;;;;9.90;6.72;;;;;;;;;;5072349;28;20028;-65
2023/04/02 09:56:27;;;;;;;;;;;;;;;;;;5074866;28;20082;-65
2023/04/02 09:59:02;;;;;;;9.77;6.68;;;;;;;;;;5071720;28;19916;-65
2023/04/02 10:01:29;;;;;;;13.38;7.18;;;;;;;;;;5075279;28;20056;-65
2023/04/02 10:03:57;;;;;;;9.50;7.28;;;;;;;;;;5077155;28;20041;-65
2023/04/02 10:06:23;;;;;;;10.55;7.18;;;;;;;;;;5074606;28;20047;-65
2023/04/02 10:08:49;;;;;;;9.60;7.22;;;;;;;;;;5071941;28;20033;-65
2023/04/02 10:11:24;;;;;;;12.88;6.45;;;;;;;;;;5072437;28;20554;-63
2023/04/02 10:13:52;;;;;;;11.27;7.18;;;;;;;;;;5072321;28;20024;-67
2023/04/02 10:16:31;;;;;;;9.23;6.43;;;;;;;;;;5068928;28;20452;-66
2023/04/02 10:18:58;;;;;;;9.43;6.07;;;;;;;;;;5066973;28;20112;-66
2023/04/02 10:21:27;;;;;;;10.55;6.03;;;;;;;;;;5074975;28;20572;-67
2023/04/02 10:23:53;;;;;;;11.57;6.13;;;;;;;;;;5072346;28;20047;-67
2023/04/02 10:26:34;;;;;;;9.38;6.30;;;;;;;;;;5072173;28;20028;-65
2023/04/02 10:29:09;;;;;;;10.20;6.97;;;;;;;;;;5073611;28;20024;-66
2023/04/02 10:31:37;;;;;;;11.15;7.28;;;;;;;;;;5073415;28;20044;-66
2023/04/02 10:34:08;;;;;;;18.15;7.38;;;;;;;;;;5072942;28;20033;-63
2023/04/02 10:36:36;;;;;;;13.52;8.73;;;;;;;;;;5071624;28;20176;-63
2023/04/02 10:39:40;;;;;;;16.52;8.82;;;;;;;;;;5073795;28;20067;-64
2023/04/02 10:42:23;;;;;;;10.52;8.23;;;;;;;;;;4987819;28;20194;-63
2023/04/02 10:44:58;;;;;;;11.88;7.10;;;;;;;;;;4986734;28;20030;-63
2023/04/02 10:47:30;;;;;;;11.77;6.90;;;;;;;;;;5044257;28;20040;-62
2023/04/02 10:49:58;;;;;;;11.48;7.15;;;;;;;;;;5072589;28;20016;-62
2023/04/02 10:52:29;;;;;;;10.77;5.70;;;;;;;;;;5071053;28;20076;-65
2023/04/02 10:54:58;;;;;;;9.85;4.88;;;;;;;;;;5071913;28;20028;-64
2023/04/02 10:57:37;;;;;;;8.55;5.60;;;;;;;;;;5071067;28;20107;-68
2023/04/02 11:00:15;;;;;;;10.52;5.70;;;;;;;;;;5071727;28;20055;-67
2023/04/02 11:02:40;;;;;;;9.48;4.95;;;;;;;;;;5056106;28;20110;-65
2023/04/02 11:05:11;;;;;;;7.18;5.63;;;;;;;;;;5037294;28;20082;-66
2023/04/02 11:07:45;;;;;;;8.35;5.93;;;;;;;;;;5058528;28;20028;-65
2023/04/02 11:10:14;;;;;;;9.85;6.10;;;;;;;;;;5072346;28;21243;-63
2023/04/02 11:12:47;;;;;;;7.35;5.28;;;;;;;;;;5075441;28;20031;-63
2023/04/02 11:15:14;;;;;;;9.85;5.25;;;;;;;;;;5073608;28;20078;-63
2023/04/02 11:17:41;;;;;;;8.82;5.10;;;;;;;;;;5069786;28;21880;-64
2023/04/02 11:20:25;;;;;;;10.68;5.25;;;;;;;;;;5073492;28;20032;-64
2023/04/02 11:23:09;;;;;;;7.85;4.50;;;;;;;;;;5072395;28;20024;-65
2023/04/02 11:25:34;;;;;;;12.07;4.80;;;;;;;;;;5073773;28;20375;-64
2023/04/02 11:28:26;;;;;;;8.75;4.43;;;;;;;;;;5075014;28;20031;-64
2023/04/02 11:30:51;;;;;;;6.95;4.40;;;;;;;;;;5070015;28;20043;-64
2023/04/02 11:33:38;;;;;;;8.73;4.70;;;;;;;;;;5071420;28;20467;-63
2023/04/02 11:36:03;;;;;;;7.05;3.70;;;;;;;;;;5070758;28;20104;-65
2023/04/02 11:38:45;;;;;;;9.75;4.65;;;;;;;;;;5071652;28;20115;-64
2023/04/02 11:41:10;;;;;;;12.82;5.68;;;;;;;;;;5072388;28;20036;-63
2023/04/02 11:43:36;;;;;;;7.50;4.70;;;;;;;;;;5080245;28;20026;-65
2023/04/02 11:46:20;;;;;;;8.68;5.50;;;;;;;;;;5067990;28;20449;-65
2023/04/02 11:48:45;;;;;;;9.20;5.05;;;;;;;;;;5071633;28;20103;-65
2023/04/02 11:51:19;;;;;;;8.43;4.57;;;;;;;;;;5072515;28;20146;-65
2023/04/02 11:53:45;;;;;;;;;;;;;;;;;;5080758;28;20069;-66
2023/04/02 11:56:18;;;;;;;8.65;3.55;;;;;;;;;;5074119;28;20004;-65
2023/04/02 11:58:49;;;;;;;13.32;4.65;;;;;;;;;;5074910;28;20017;-65
2023/04/02 12:01:28;;;;;;;10.60;4.18;;;;;;;;;;5076297;28;20032;-65
2023/04/02 12:04:12;;;;;;;5.35;3.67;;;;;;;;;;5074357;28;20028;-65
2023/04/02 12:06:46;;;;;;;10.10;4.40;;;;;;;;;;5079782;28;20261;-65
2023/04/02 12:09:26;;;;;;;9.13;3.88;;;;;;;;;;5080299;28;20036;-65
2023/04/02 12:11:56;;;;;;;11.52;4.22;;;;;;;;;;5079648;28;20035;-65
2023/04/02 12:14:28;;;;;;;8.38;3.88;;;;;;;;;;5078470;28;20074;-64
2023/04/02 12:16:53;;;;;;;15.10;4.30;;;;;;;;;;5086520;28;20032;-64
2023/04/02 12:19:19;;;;;;;6.55;3.72;;;;;;;;;;5083161;28;20521;-65
2023/04/02 12:21:48;;;;;;;6.65;3.45;;;;;;;;;;5075828;28;20029;-64
2023/04/02 12:24:18;;;;;;;5.63;3.45;;;;;;;;;;5075694;28;20107;-63
2023/04/02 12:26:45;;;;;;;5.53;3.72;;;;;;;;;;5054808;28;20168;-64
2023/04/02 12:29:27;;;;;;;6.47;3.67;;;;;;;;;;5064293;28;20035;-65
2023/04/02 12:31:54;;;;;;;8.50;4.20;;;;;;;;;;5075104;28;20537;-68
2023/04/02 12:34:20;;;;;;;8.35;4.30;;;;;;;;;;5076870;28;20073;-63
2023/04/02 12:37:03;;;;;;;13.50;4.75;;;;;;;;;;5080468;28;20028;-65
2023/04/02 12:39:29;;;;;;;10.40;3.83;;;;;;;;;;5075050;28;20044;-64
2023/04/02 12:41:55;;;;;;;6.28;3.90;;;;;;;;;;5075970;28;20028;-64
2023/04/02 12:44:22;;;;;;;6.30;4.00;;;;;;;;;;5076104;28;20020;-64
2023/04/02 12:46:48;;;;;;;6.82;4.43;;;;;;;;;;5078137;28;20032;-64
2023/04/02 12:49:19;;;;;;;9.25;5.00;;;;;;;;;;5074465;28;20033;-65
2023/04/02 12:51:45;;;;;;;9.75;5.32;;;;;;;;;;5080372;28;20467;-63
2023/04/02 12:54:16;;;;;;;7.88;5.15;;;;;;;;;;5083497;28;20023;-63
2023/04/02 12:56:41;;;;;;;10.65;5.50;;;;;;;;;;5079889;28;20016;-64
2023/04/02 12:59:23;;;;;;;7.72;4.95;;;;;;;;;;5080409;28;20029;-64
2023/04/02 13:01:56;;;;;;;6.78;4.93;;;;;;;;;;5076017;28;20042;-64
2023/04/02 13:04:21;;;;;;;7.55;5.60;;;;;;;;;;5073529;28;20024;-64
2023/04/02 13:06:48;;;;;;;8.00;5.05;;;;;;;;;;5075026;28;20111;-64
2023/04/02 13:09:28;;;;;;;9.43;5.60;;;;;;;;;;5084266;28;20028;-64
2023/04/02 13:11:54;;;;;;;6.63;4.85;;;;;;;;;;5084219;28;20032;-64
2023/04/02 13:14:20;;;;;;;8.20;5.03;;;;;;;;;;5085731;28;20479;-63
2023/04/02 13:16:45;;;;;;;8.60;3.92;;;;;;;;;;5073701;28;20036;-65
2023/04/02 13:19:19;;;;;;;7.30;4.13;;;;;;;;;;5075610;28;20112;-65
2023/04/02 13:21:45;;;;;;;6.70;3.85;;;;;;;;;;5084721;28;20027;-65
2023/04/02 13:24:20;;;;;;;5.93;3.40;;;;;;;;;;5075614;28;20024;-65
2023/04/02 13:26:48;;;;;;;8.93;3.80;;;;;;;;;;5073215;28;20035;-65
2023/04/02 13:29:20;;;;;;;6.55;3.28;;;;;;;;;;5085252;28;20022;-64
2023/04/02 13:31:46;;;;;;;5.88;3.08;;;;;;;;;;5074705;28;20078;-64
2023/04/02 13:34:11;;;;;;;5.90;3.40;;;;;;;;;;5085118;28;20478;-65
2023/04/02 13:36:37;;;;;;;8.45;3.53;;;;;;;;;;5073645;28;20036;-65
2023/04/02 13:39:02;;;;;;;7.50;3.45;;;;;;;;;;5082341;28;20017;-65
2023/04/02 13:41:29;;;;;;;10.65;3.33;;;;;;;;;;5078188;28;20032;-65
2023/04/02 13:43:56;;;;;;;8.75;3.63;;;;;;;;;;5081015;28;20027;-65
2023/04/02 13:46:25;;;;;;;6.95;3.22;;;;;;;;;;5073204;28;20024;-64
2023/04/02 13:48:50;;;;;;;6.78;3.47;;;;;;;;;;5083034;28;20020;-65
2023/04/02 13:51:17;;;;;;;6.90;3.85;;;;;;;;;;5072378;28;20024;-66
2023/04/02 13:53:43;;;;;;;6.15;2.88;;;;;;;;;;5077807;28;20020;-66
2023/04/02 13:56:08;;;;;;;9.70;3.92;;;;;;;;;;5072980;28;20040;-65
2023/04/02 13:58:33;;;;;;;5.07;3.45;;;;;;;;;;5076556;28;20025;-65
2023/04/02 14:00:59;;;;;;;8.98;3.75;;;;;;;;;;5076501;28;20055;-64
2023/04/02 14:03:24;;;;;;;7.97;4.32;;;;;;;;;;5074313;28;20382;-65
2023/04/02 14:05:57;;;;;;;8.68;4.45;;;;;;;;;;5072639;28;20024;-65
2023/04/02 14:08:31;;;;;;;7.50;3.55;;;;;;;;;;5079185;28;21174;-63
2023/04/02 14:11:00;;;;;;;11.82;3.72;;;;;;;;;;5080409;28;20025;-65
2023/04/02 14:13:31;;;;;;;5.85;3.72;;;;;;;;;;5077623;28;20016;-63
2023/04/02 14:16:15;;;;;;;6.57;3.55;;;;;;;;;;5071740;28;20107;-62
2023/04/02 14:18:59;;;;;;;6.17;3.77;;;;;;;;;;5076244;28;20028;-65
2023/04/02 14:21:28;;;;;;;7.20;4.17;;;;;;;;;;5073136;28;20036;-69
2023/04/02 14:23:56;;;;;;;4.93;3.75;;;;;;;;;;5075753;28;20278;-63
2023/04/02 14:26:21;;;;;;;5.88;3.80;;;;;;;;;;5072730;28;20016;-61
2023/04/02 14:29:03;;;;;;;6.80;3.83;;;;;;;;;;5073845;28;20024;-62
2023/04/02 14:31:30;;;;;;;9.38;3.65;;;;;;;;;;5073037;28;20031;-63
2023/04/02 14:33:55;;;;;;;5.18;4.10;;;;;;;;;;5085539;28;20074;-64
2023/04/02 14:36:20;;;;;;;7.57;3.83;;;;;;;;;;5072619;28;20498;-63
2023/04/02 14:39:06;;;;;;;10.25;3.67;;;;;;;;;;5081191;28;20450;-64
2023/04/02 14:41:51;;;;;;;7.38;3.50;;;;;;;;;;5058474;28;20032;-64
2023/04/02 14:44:18;;;;;;;6.82;4.05;;;;;;;;;;5076749;28;20029;-64
2023/04/02 14:46:45;;;;;;;6.00;3.38;;;;;;;;;;5072715;28;20023;-65
2023/04/02 14:49:25;;;;;;;12.85;4.82;;;;;;;;;;5075870;28;20032;-61
2023/04/02 14:51:53;;;;;;;8.60;4.85;;;;;;;;;;5072242;28;20025;-64